Pendennis Point, United Kingdom

4:46 PM BST on May 22, 2015 (GMT +0100)
Trolver Croft | | Change Station
CLOSE
Current Station
Personal Weather Station
Location: Truro,
Elevation: 30 ft
Nearby Weather Stations

Elev 30 ft 50.21 °N, 5.06 °W | Updated 52 seconds ago

Haze
Haze
61.9 °F
Feels Like 61.9 °F
N
10.7
Wind Variable Wind from NW
Gusts 12.1 mph

Today
High -- | Low -- °F
--% Chance of Precip.
Yesterday
High -- | Low -- °F
Precip. -- in
5:25 AM 9:09 PM
Waxing Crescent, 22% visible
Pressure 30.30 in
Visibility 2.5 miles
Clouds Few 300 ft
Mostly Cloudy 600 ft
Dew Point 52 °F
Humidity 69%
Rainfall 0.00 in
Snow Depth Not available.
UV 3 out of 12
Pollen Not available.
Air Quality Not available.
Flu Activity Not available.
METAR EGDR 221450Z 23006KT 4000 HZ FEW003 BKN006 14/13 Q1026 YLO1

More Conditions Fewer Conditions

Pressure 30.30 in
Visibility 2.5 miles
Clouds Few 300 ft
Mostly Cloudy 600 ft
Dew Point 52 °F
Humidity 69%
Rainfall 0.00 in
Snow Depth Not available.
UV 3 out of 12
Pollen Not available.
Air Quality Not available.
Flu Activity Not available.
METAR EGDR 221450Z 23006KT 4000 HZ FEW003 BKN006 14/13 Q1026 YLO1

More Conditions Fewer Conditions

10-Day Weather Forecast

Almanac

Astronomy

May. 22, 2015 Rise Set
Actual Time
Civil Twilight
Nautical Twilight
Astronomical Twilight
Moon
Length of Visible Light
Length of Day
Tomorrow will be .
, % of the Moon is Illuminated

Today's Extremes

Country Highs Country Lows

Community

WunderPhotos

Upload Photos

1,823,245 photos uploaded!

WunderBlogs® & News

Nearby

Air Quality

  Air Quality AQ Index Pollutant
Not available.

Snow Depth

Station Depth Elevation

Earthquake Activity

City Distance Mag. Time & Date
Minimum magnitude displayed is 2.5.

Coastal Water Temperatures

Place Temperature

Stations

Nearby Weather Stations

Station Location Temp. Windchill Dew Point Humidity Wind Precip. Elev Updated Type